Time;durP1;ratioP1;P1;durP2;ratioP2;P2;SDS_P1;SDS_P2;PMS_P1;PMS_P2;Temp;Humidity;BMP_temperature;BMP_pressure;BME280_temperature;BME280_humidity;BME280_pressure;Samples;Min_cycle;Max_cycle;Signal;HPM_P1;HPM_P2
2021/01/13 00:02:20;;;;;;;2.97;2.03;;;5.00;80.80;;;;;;5001348;28;20087;-78
2021/01/13 00:04:46;;;;;;;3.85;2.17;;;5.00;80.90;;;;;;5022690;28;20469;-78
2021/01/13 00:07:14;;;;;;;3.47;2.10;;;5.00;80.90;;;;;;5033676;28;20079;-78
2021/01/13 00:09:41;;;;;;;3.22;2.40;;;5.00;80.90;;;;;;5011712;28;20075;-78
2021/01/13 00:12:07;;;;;;;2.75;1.90;;;5.00;80.90;;;;;;5024487;28;20056;-77
2021/01/13 00:14:33;;;;;;;3.83;2.20;;;5.00;80.80;;;;;;5033429;28;20061;-79
2021/01/13 00:16:58;;;;;;;2.63;2.03;;;5.00;80.80;;;;;;5009517;28;20025;-78
2021/01/13 00:19:24;;;;;;;3.35;2.05;;;5.00;80.80;;;;;;5028313;28;20043;-77
2021/01/13 00:21:51;;;;;;;3.38;2.38;;;5.00;80.90;;;;;;5024408;28;20036;-78
2021/01/13 00:24:18;;;;;;;2.47;1.88;;;5.00;80.90;;;;;;5030410;28;20025;-78
2021/01/13 00:26:43;;;;;;;3.55;2.33;;;4.90;80.80;;;;;;5033575;28;20040;-78
2021/01/13 00:29:11;;;;;;;2.30;2.05;;;4.90;80.90;;;;;;5043392;28;20462;-78
2021/01/13 00:31:37;;;;;;;3.47;2.13;;;4.90;80.80;;;;;;5002615;28;20465;-79
2021/01/13 00:34:06;;;;;;;3.42;1.92;;;4.90;80.80;;;;;;5019418;28;20033;-78
2021/01/13 00:36:32;;;;;;;2.65;2.08;;;4.90;80.90;;;;;;5026622;28;20038;-77
2021/01/13 00:38:58;;;;;;;3.55;2.30;;;4.90;80.80;;;;;;5017746;28;20458;-77
2021/01/13 00:41:24;;;;;;;2.90;2.20;;;4.90;80.90;;;;;;5004698;28;20583;-77
2021/01/13 00:43:51;;;;;;;4.22;2.17;;;4.90;80.90;;;;;;4987154;28;20030;-78
2021/01/13 00:46:18;;;;;;;3.13;2.30;;;4.90;80.90;;;;;;5030307;28;20064;-77
2021/01/13 00:48:44;;;;;;;2.80;2.17;;;4.90;80.90;;;;;;5020261;28;20115;-78
2021/01/13 00:51:10;;;;;;;2.95;1.90;;;4.80;80.80;;;;;;5001052;28;20117;-77
2021/01/13 00:53:35;;;;;;;2.45;1.80;;;4.80;80.80;;;;;;5019946;28;20187;-79
2021/01/13 00:56:02;;;;;;;4.18;2.30;;;4.80;80.80;;;;;;5006207;28;20510;-78
2021/01/13 00:58:27;;;;;;;3.50;2.17;;;4.80;80.80;;;;;;5027695;28;20382;-77
2021/01/13 01:00:53;;;;;;;3.05;2.22;;;4.80;80.90;;;;;;5030640;28;20025;-77
2021/01/13 01:03:20;;;;;;;2.28;2.05;;;4.80;80.90;;;;;;5036216;28;20353;-79
2021/01/13 01:05:46;;;;;;;3.45;2.38;;;4.70;80.80;;;;;;5024090;28;20045;-78
2021/01/13 01:08:12;;;;;;;3.67;2.15;;;4.80;80.90;;;;;;5030721;28;20029;-78
2021/01/13 01:10:39;;;;;;;2.55;2.08;;;4.80;80.90;;;;;;5016844;28;20346;-78
2021/01/13 01:13:06;;;;;;;3.63;2.17;;;4.70;80.90;;;;;;5005804;28;20429;-77
2021/01/13 01:15:33;;;;;;;3.70;2.20;;;4.70;80.90;;;;;;5030972;28;20043;-78
2021/01/13 01:17:59;;;;;;;3.17;2.00;;;4.70;80.90;;;;;;4999810;28;20052;-78
2021/01/13 01:20:25;;;;;;;3.28;2.22;;;4.70;80.90;;;;;;5031948;28;20057;-77
2021/01/13 01:22:52;;;;;;;2.88;2.30;;;4.70;80.90;;;;;;5016448;28;20466;-78
2021/01/13 01:25:18;;;;;;;3.00;1.98;;;4.70;80.90;;;;;;5032314;28;20041;-78
2021/01/13 01:27:56;;;;;;;2.83;2.13;;;4.70;81.50;;;;;;5011357;28;20030;-77
2021/01/13 01:30:23;;;;;;;2.33;1.85;;;4.70;80.90;;;;;;5018971;28;20029;-77
2021/01/13 01:32:49;;;;;;;2.28;2.05;;;4.70;80.90;;;;;;5001882;28;20393;-79
2021/01/13 01:35:15;;;;;;;4.20;2.30;;;4.70;80.90;;;;;;5020512;28;20140;-78
2021/01/13 01:37:42;;;;;;;2.55;1.90;;;4.70;80.90;;;;;;5024953;28;20028;-80
2021/01/13 01:40:13;;;;;;;1.70;1.60;;;4.70;80.90;;;;;;5025715;28;20034;-78
2021/01/13 01:42:50;;;;;;;2.55;1.80;;;4.70;80.90;;;;;;5026926;28;20450;-77
2021/01/13 01:45:19;;;;;;;1.80;1.65;;;4.70;81.00;;;;;;5025042;28;20049;-78
2021/01/13 01:48:02;;;;;;;2.20;1.90;;;4.70;80.90;;;;;;5029987;28;20645;-78
2021/01/13 01:50:44;;;;;;;2.05;1.83;;;4.60;81.00;;;;;;5022329;28;20033;-78
2021/01/13 01:53:24;;;;;;;2.00;1.80;;;4.70;81.00;;;;;;5042490;28;20021;-78
2021/01/13 01:56:11;;;;;;;3.40;1.80;;;4.60;80.90;;;;;;5019437;28;20390;-78
2021/01/13 01:58:37;;;;;;;2.80;1.70;;;4.60;81.00;;;;;;5031373;28;20025;-77
2021/01/13 02:01:05;;;;;;;3.10;1.88;;;4.70;80.90;;;;;;5024343;28;20144;-77
2021/01/13 02:03:53;;;;;;;2.88;1.73;;;4.70;81.00;;;;;;5004582;28;20038;-78
2021/01/13 02:06:19;;;;;;;1.67;1.42;;;4.60;81.10;;;;;;5017141;28;20417;-77
2021/01/13 02:08:46;;;;;;;2.92;1.70;;;4.60;80.90;;;;;;5035383;28;20040;-78
2021/01/13 02:11:19;;;;;;;1.95;1.80;;;4.60;81.00;;;;;;5031081;28;20032;-78
2021/01/13 02:13:46;;;;;;;2.42;1.80;;;4.60;81.10;;;;;;5008666;28;20034;-79
2021/01/13 02:16:14;;;;;;;2.00;1.88;;;4.60;81.00;;;;;;5048848;28;20466;-78
2021/01/13 02:18:48;;;;;;;1.92;1.70;;;4.60;81.00;;;;;;5033965;28;20416;-77
2021/01/13 02:21:19;;;;;;;1.52;1.42;;;4.60;81.00;;;;;;5035298;28;20029;-77
2021/01/13 02:23:56;;;;;;;1.88;1.77;;;4.60;81.00;;;;;;5035552;28;20111;-78
2021/01/13 02:27:09;;;;;;;1.98;1.60;;;4.60;81.00;;;;;;5024448;28;20079;-77
2021/01/13 02:29:51;;;;;;;1.80;1.60;;;4.60;81.10;;;;;;4987146;28;20037;-77
2021/01/13 02:32:22;;;;;;;1.75;1.50;;;4.60;80.90;;;;;;5035584;28;20079;-77
2021/01/13 02:35:13;;;;;;;2.85;2.08;;;4.60;80.90;;;;;;5025376;28;20055;-77
2021/01/13 02:37:44;;;;;;;1.70;1.60;;;4.60;81.00;;;;;;5022085;28;20030;-77
2021/01/13 02:40:18;;;;;;;2.28;1.50;;;4.60;80.90;;;;;;5040837;28;20036;-77
2021/01/13 02:43:03;;;;;;;2.67;1.50;;;4.60;81.00;;;;;;5021558;28;20036;-77
2021/01/13 02:45:38;;;;;;;1.70;1.60;;;4.60;81.10;;;;;;5032729;28;20033;-77
2021/01/13 02:48:21;;;;;;;1.90;1.67;;;4.60;81.00;;;;;;5025070;28;20029;-79
2021/01/13 02:50:56;;;;;;;3.10;2.13;;;4.60;81.00;;;;;;5032495;28;20025;-82
2021/01/13 02:53:21;;;;;;;1.83;1.63;;;4.60;81.00;;;;;;5016343;28;20025;-78
2021/01/13 02:55:47;;;;;;;1.75;1.50;;;4.60;81.00;;;;;;5033190;28;20028;-77
2021/01/13 02:58:19;;;;;;;2.10;1.52;;;4.50;81.00;;;;;;5026722;28;20050;-78
2021/01/13 03:00:45;;;;;;;2.10;1.90;;;4.50;81.00;;;;;;5047589;28;20216;-79
2021/01/13 03:03:11;;;;;;;1.50;1.40;;;4.60;81.10;;;;;;4988782;28;20033;-77
2021/01/13 03:05:37;;;;;;;2.40;1.52;;;4.60;81.10;;;;;;5043665;28;20108;-77
2021/01/13 03:08:06;;;;;;;2.67;1.63;;;4.60;81.00;;;;;;5012883;28;20152;-79
2021/01/13 03:10:37;;;;;;;1.95;1.55;;;4.50;81.00;;;;;;5013587;28;20025;-77
2021/01/13 03:13:05;;;;;;;2.50;2.03;;;4.60;81.10;;;;;;5046154;28;20029;-79
2021/01/13 03:15:33;;;;;;;1.60;1.50;;;4.50;81.00;;;;;;5019988;28;20025;-77
2021/01/13 03:18:09;;;;;;;2.40;1.70;;;4.50;81.00;;;;;;5044276;28;20096;-78
2021/01/13 03:21:02;;;;;;;2.95;1.83;;;4.60;81.10;;;;;;5026037;28;20046;-78
2021/01/13 03:23:37;;;;;;;2.95;1.98;;;4.50;81.70;;;;;;5031884;28;20358;-78
2021/01/13 03:26:05;;;;;;;1.70;1.60;;;4.60;81.00;;;;;;5032129;28;20053;-77
2021/01/13 03:28:33;;;;;;;2.78;1.92;;;4.60;81.00;;;;;;5041321;28;20032;-77
2021/01/13 03:31:00;;;;;;;1.77;1.67;;;4.50;81.00;;;;;;5031784;28;20021;-77
2021/01/13 03:33:44;;;;;;;2.15;1.65;;;4.50;81.00;;;;;;5021163;28;20021;-77
2021/01/13 03:36:19;;;;;;;1.88;1.60;;;4.50;81.00;;;;;;5032121;28;20021;-78
2021/01/13 03:39:06;;;;;;;1.83;1.63;;;4.50;81.00;;;;;;5017788;28;20120;-80
2021/01/13 03:42:03;;;;;;;2.53;1.88;;;4.50;81.10;;;;;;5026813;28;20070;-78
2021/01/13 03:44:33;;;;;;;3.25;2.03;;;4.50;81.10;;;;;;5047205;28;20044;-77
2021/01/13 03:47:29;;;;;;;2.63;1.92;;;4.50;80.90;;;;;;5035173;28;20028;-78
2021/01/13 03:50:36;;;;;;;2.72;1.83;;;4.50;81.10;;;;;;5037581;28;20473;-77
2021/01/13 03:53:04;;;;;;;;;;;4.50;81.10;;;;;;5024046;28;20612;-78
2021/01/13 03:55:32;;;;;;;1.77;1.50;;;4.50;80.90;;;;;;5032921;28;19905;-77
2021/01/13 03:57:57;;;;;;;2.90;1.70;;;4.50;80.80;;;;;;5023335;28;20052;-77
2021/01/13 04:00:29;;;;;;;1.83;1.73;;;4.50;80.90;;;;;;5036483;28;20021;-77
2021/01/13 04:03:22;;;;;;;1.92;1.75;;;4.50;81.00;;;;;;5011271;28;20029;-79
2021/01/13 04:06:09;;;;;;;1.63;1.52;;;4.50;81.10;;;;;;5023835;28;20037;-77
2021/01/13 04:08:45;;;;;;;1.88;1.60;;;4.50;81.10;;;;;;5018195;28;20034;-77
2021/01/13 04:11:20;;;;;;;2.72;1.92;;;4.50;81.00;;;;;;5041071;28;20032;-77
2021/01/13 04:13:51;;;;;;;2.33;1.55;;;4.50;81.10;;;;;;5040570;28;20021;-78
2021/01/13 04:16:22;;;;;;;1.88;1.50;;;4.50;81.10;;;;;;5037240;28;20486;-78
2021/01/13 04:18:49;;;;;;;1.80;1.70;;;4.50;81.10;;;;;;5016582;28;20049;-77
2021/01/13 04:21:18;;;;;;;3.45;2.15;;;4.50;81.10;;;;;;5042298;28;20091;-76
2021/01/13 04:23:45;;;;;;;1.83;1.70;;;4.50;81.10;;;;;;5032323;28;20029;-77
2021/01/13 04:26:11;;;;;;;3.63;2.05;;;4.50;81.10;;;;;;5035335;28;20062;-76
2021/01/13 04:28:38;;;;;;;2.90;1.63;;;4.50;81.10;;;;;;5021419;28;20033;-78
2021/01/13 04:31:05;;;;;;;3.10;1.77;;;4.50;81.10;;;;;;5030893;28;20026;-76
2021/01/13 04:33:31;;;;;;;3.03;2.05;;;4.50;81.10;;;;;;5017796;28;20021;-77
2021/01/13 04:35:58;;;;;;;4.90;2.17;;;4.60;81.20;;;;;;5035373;28;20024;-79
2021/01/13 04:38:31;;;;;;;1.67;1.58;;;4.60;81.20;;;;;;5017386;28;20124;-76
2021/01/13 04:41:18;;;;;;;2.05;1.65;;;4.60;81.30;;;;;;5038893;28;20029;-80
2021/01/13 04:44:01;;;;;;;2.35;1.52;;;4.60;81.20;;;;;;5006410;28;20406;-77
2021/01/13 04:46:38;;;;;;;1.50;1.40;;;4.60;81.20;;;;;;5028691;28;20074;-78
2021/01/13 04:49:06;;;;;;;1.50;1.40;;;4.60;81.20;;;;;;5033346;28;20040;-77
2021/01/13 04:51:42;;;;;;;2.22;1.63;;;4.60;81.10;;;;;;5034028;28;20061;-77
2021/01/13 04:54:10;;;;;;;1.60;1.50;;;4.60;81.20;;;;;;5037390;28;20030;-77
2021/01/13 04:56:45;;;;;;;2.35;1.73;;;4.60;81.10;;;;;;5016914;28;20034;-77
2021/01/13 04:59:30;;;;;;;1.90;1.55;;;4.60;81.20;;;;;;5032810;28;20025;-77
2021/01/13 05:02:09;;;;;;;2.30;1.75;;;4.60;81.20;;;;;;5030047;28;20028;-78
2021/01/13 05:05:00;;;;;;;2.35;1.75;;;4.60;81.20;;;;;;5036877;28;20052;-77
2021/01/13 05:07:38;;;;;;;1.95;1.73;;;4.60;81.20;;;;;;5029710;28;20043;-78
2021/01/13 05:10:08;;;;;;;1.52;1.40;;;4.70;81.20;;;;;;5028592;28;20027;-76
2021/01/13 05:13:03;;;;;;;1.52;1.40;;;4.60;81.20;;;;;;5008297;28;20034;-76
2021/01/13 05:15:31;;;;;;;3.92;1.70;;;4.60;81.30;;;;;;5011409;28;20536;-77
2021/01/13 05:17:58;;;;;;;1.75;1.65;;;4.70;81.20;;;;;;5018714;28;20025;-77
2021/01/13 05:20:29;;;;;;;2.03;1.58;;;4.70;81.20;;;;;;5019652;28;20488;-77
2021/01/13 05:22:56;;;;;;;1.83;1.58;;;4.70;81.20;;;;;;5019886;28;20035;-76
2021/01/13 05:25:45;;;;;;;1.83;1.50;;;4.70;81.20;;;;;;5016849;28;20053;-77
2021/01/13 05:28:18;;;;;;;2.22;1.58;;;4.70;81.30;;;;;;5025124;28;20036;-77
2021/01/13 05:30:58;;;;;;;1.65;1.55;;;4.70;81.20;;;;;;5051570;28;20452;-77
2021/01/13 05:33:30;;;;;;;1.88;1.70;;;4.70;81.30;;;;;;5047564;28;20074;-79
2021/01/13 05:36:04;;;;;;;1.33;1.23;;;4.70;81.20;;;;;;5017082;28;20060;-77
2021/01/13 05:38:38;;;;;;;1.92;1.58;;;4.70;81.20;;;;;;5036055;28;20061;-77
2021/01/13 05:41:10;;;;;;;1.65;1.48;;;4.70;81.20;;;;;;5034834;28;20064;-78
2021/01/13 05:43:49;;;;;;;2.33;1.58;;;4.80;81.20;;;;;;5000874;28;20029;-77
2021/01/13 05:46:17;;;;;;;2.25;1.65;;;4.70;81.20;;;;;;5003444;28;20041;-77
2021/01/13 05:48:48;;;;;;;1.45;1.35;;;4.80;81.20;;;;;;5041702;28;20028;-77
2021/01/13 05:51:14;;;;;;;1.58;1.48;;;4.80;81.30;;;;;;5029902;28;20075;-77
2021/01/13 05:53:51;;;;;;;1.73;1.55;;;4.80;81.20;;;;;;5014046;28;20017;-77
2021/01/13 05:56:18;;;;;;;1.52;1.42;;;4.70;81.30;;;;;;5031064;28;20450;-77
2021/01/13 05:58:44;;;;;;;2.10;1.50;;;4.80;81.20;;;;;;5047484;28;20021;-77
2021/01/13 06:01:41;;;;;;;1.42;1.33;;;4.80;81.20;;;;;;5032209;28;20057;-78
2021/01/13 06:04:08;;;;;;;1.38;1.27;;;4.80;81.30;;;;;;5025836;28;20026;-78
2021/01/13 06:06:40;;;;;;;1.75;1.55;;;4.80;81.20;;;;;;5016508;28;20040;-77
2021/01/13 06:09:07;;;;;;;2.50;1.60;;;4.80;81.20;;;;;;5036909;28;20466;-81
2021/01/13 06:11:36;;;;;;;1.88;1.52;;;4.80;81.20;;;;;;5030745;28;20075;-79
2021/01/13 06:14:06;;;;;;;1.70;1.60;;;4.80;81.20;;;;;;5043302;28;20029;-76
2021/01/13 06:16:32;;;;;;;1.67;1.58;;;4.80;81.20;;;;;;5014494;28;20112;-77
2021/01/13 06:18:58;;;;;;;2.03;1.77;;;4.80;81.20;;;;;;5029880;28;20032;-76
2021/01/13 06:21:24;;;;;;;1.63;1.52;;;4.80;81.20;;;;;;5016825;28;20029;-76
2021/01/13 06:23:51;;;;;;;2.80;1.60;;;4.80;81.20;;;;;;4997800;28;20037;-76
2021/01/13 06:26:19;;;;;;;3.63;1.50;;;4.80;81.30;;;;;;5025519;28;20120;-76
2021/01/13 06:29:00;;;;;;;1.50;1.40;;;4.80;81.30;;;;;;4994937;28;20541;-75
2021/01/13 06:31:27;;;;;;;1.92;1.50;;;4.80;81.40;;;;;;5034595;28;20127;-76
2021/01/13 06:34:21;;;;;;;1.80;1.60;;;4.80;81.20;;;;;;5011929;28;20061;-75
2021/01/13 06:36:50;;;;;;;2.20;1.52;;;4.80;81.30;;;;;;5017036;28;20418;-76
2021/01/13 06:39:17;;;;;;;1.80;1.70;;;4.80;81.20;;;;;;5052489;28;20087;-76
2021/01/13 06:41:47;;;;;;;2.40;1.80;;;4.80;81.20;;;;;;5034868;28;20095;-76
2021/01/13 06:44:14;;;;;;;2.95;1.75;;;4.80;81.30;;;;;;5031201;28;20117;-76
2021/01/13 06:46:39;;;;;;;2.65;2.00;;;4.80;81.20;;;;;;5032396;28;20041;-76
2021/01/13 06:49:16;;;;;;;2.38;1.70;;;4.80;81.20;;;;;;5013093;28;20041;-76
2021/01/13 06:51:50;;;;;;;1.92;1.73;;;4.80;81.30;;;;;;5020347;28;20075;-76
2021/01/13 06:54:17;;;;;;;2.85;1.75;;;4.80;81.20;;;;;;5006589;28;20079;-76
2021/01/13 06:56:50;;;;;;;3.15;1.70;;;4.80;81.20;;;;;;5001629;28;20117;-77
2021/01/13 06:59:18;;;;;;;1.60;1.50;;;4.80;81.20;;;;;;5011848;28;20024;-77
2021/01/13 07:01:55;;;;;;;1.70;1.60;;;4.80;81.20;;;;;;5011288;28;20433;-77
2021/01/13 07:04:22;;;;;;;2.70;1.75;;;4.80;81.30;;;;;;5030772;28;20036;-77
2021/01/13 07:07:05;;;;;;;2.40;1.85;;;4.80;81.20;;;;;;5023882;28;20044;-78
2021/01/13 07:09:45;;;;;;;3.50;2.00;;;4.80;81.30;;;;;;5027976;28;20025;-76
2021/01/13 07:12:26;;;;;;;1.83;1.50;;;4.80;81.30;;;;;;5008875;28;20576;-77
2021/01/13 07:14:55;;;;;;;2.10;1.88;;;4.80;81.20;;;;;;5034395;28;20116;-76
2021/01/13 07:17:26;;;;;;;2.15;1.95;;;4.80;81.20;;;;;;5033704;28;20033;-77
2021/01/13 07:19:55;;;;;;;2.00;1.75;;;4.80;81.20;;;;;;5029682;28;20017;-76
2021/01/13 07:22:23;;;;;;;2.30;1.60;;;4.80;81.20;;;;;;5022944;28;20140;-76
2021/01/13 07:24:50;;;;;;;2.85;1.95;;;4.80;81.30;;;;;;4998390;28;20073;-78
2021/01/13 07:27:16;;;;;;;2.25;1.60;;;4.80;81.30;;;;;;5025064;28;20461;-77
2021/01/13 07:29:42;;;;;;;2.85;1.80;;;4.80;81.30;;;;;;5004303;28;20052;-77
2021/01/13 07:32:10;;;;;;;2.05;1.58;;;4.80;81.30;;;;;;5012811;28;20462;-76
2021/01/13 07:34:38;;;;;;;1.60;1.50;;;4.80;81.30;;;;;;5002117;28;20470;-76
2021/01/13 07:37:21;;;;;;;2.22;1.70;;;4.80;81.20;;;;;;5011199;28;20030;-77
2021/01/13 07:39:59;;;;;;;3.25;1.70;;;4.80;81.30;;;;;;4999839;28;20533;-76
2021/01/13 07:42:39;;;;;;;2.65;1.80;;;4.80;81.30;;;;;;5012778;28;20127;-76
2021/01/13 07:45:19;;;;;;;1.83;1.70;;;4.80;81.30;;;;;;5014238;28;20124;-76
2021/01/13 07:48:11;;;;;;;2.03;1.50;;;4.80;81.30;;;;;;4987936;28;20504;-76
2021/01/13 07:50:42;;;;;;;1.92;1.40;;;4.80;81.30;;;;;;5020771;28;20033;-76
2021/01/13 07:53:22;;;;;;;2.53;1.75;;;4.80;81.20;;;;;;4995060;28;20025;-77
2021/01/13 07:55:59;;;;;;;1.63;1.52;;;4.80;81.30;;;;;;5022392;28;20119;-77
2021/01/13 07:58:27;;;;;;;1.95;1.63;;;4.80;81.30;;;;;;5001721;28;20520;-77
2021/01/13 08:01:12;;;;;;;2.10;1.70;;;4.80;81.20;;;;;;4997942;28;20451;-76
2021/01/13 08:03:46;;;;;;;3.03;1.95;;;4.80;81.30;;;;;;5010796;28;20030;-77
2021/01/13 08:06:32;;;;;;;2.30;1.80;;;4.80;81.20;;;;;;5014313;28;20440;-76
2021/01/13 08:09:16;;;;;;;2.97;1.80;;;4.70;81.20;;;;;;5029703;28;20109;-76
2021/01/13 08:12:03;;;;;;;1.80;1.70;;;4.80;81.20;;;;;;5024717;28;20033;-76
2021/01/13 08:14:48;;;;;;;1.88;1.67;;;4.80;81.20;;;;;;5021576;28;20064;-76
2021/01/13 08:18:09;;;;;;;1.73;1.63;;;4.70;81.20;;;;;;5028599;28;20053;-76
2021/01/13 08:21:13;;;;;;;1.70;1.50;;;4.70;81.20;;;;;;5002452;28;20034;-77
2021/01/13 08:23:41;;;;;;;2.40;1.58;;;4.70;81.20;;;;;;5030188;28;20053;-77
2021/01/13 08:26:08;;;;;;;1.98;1.80;;;4.70;81.10;;;;;;5001528;28;20052;-76
2021/01/13 08:28:43;;;;;;;2.55;1.70;;;4.70;81.20;;;;;;4991832;28;20124;-76
2021/01/13 08:31:09;;;;;;;2.55;1.92;;;4.70;81.40;;;;;;5018053;28;20038;-78
2021/01/13 08:33:37;;;;;;;2.42;1.85;;;4.70;81.20;;;;;;5005613;28;20052;-78
2021/01/13 08:36:12;;;;;;;2.17;1.77;;;4.70;81.20;;;;;;5017980;28;20040;-78
2021/01/13 08:38:38;;;;;;;1.70;1.60;;;4.70;81.30;;;;;;5017586;28;20079;-77
2021/01/13 08:41:23;;;;;;;2.03;1.83;;;4.70;81.20;;;;;;5022031;28;20029;-76
2021/01/13 08:44:08;;;;;;;3.47;1.95;;;4.70;81.30;;;;;;5018350;28;20034;-76
2021/01/13 08:46:54;;;;;;;1.85;1.75;;;4.70;81.20;;;;;;5032771;28;20033;-76
2021/01/13 08:49:31;;;;;;;2.08;1.60;;;4.70;81.30;;;;;;4990124;28;20132;-76
2021/01/13 08:52:18;;;;;;;2.75;1.77;;;4.70;81.20;;;;;;5017636;28;20026;-76
2021/01/13 08:54:45;;;;;;;1.88;1.67;;;4.70;81.30;;;;;;4987458;28;20042;-78
2021/01/13 08:57:12;;;;;;;4.65;2.22;;;4.70;81.20;;;;;;4984695;28;20071;-77
2021/01/13 08:59:46;;;;;;;1.80;1.70;;;4.70;81.20;;;;;;5001073;28;20053;-78
2021/01/13 09:02:15;;;;;;;1.92;1.77;;;4.70;81.30;;;;;;4998580;28;20025;-77
2021/01/13 09:04:47;;;;;;;2.28;2.08;;;4.70;81.30;;;;;;4973004;28;20025;-77
2021/01/13 09:07:14;;;;;;;2.40;1.90;;;4.70;81.30;;;;;;5029692;28;20029;-76
2021/01/13 09:09:59;;;;;;;1.73;1.40;;;4.70;81.30;;;;;;5000336;28;20026;-76
2021/01/13 09:12:35;;;;;;;1.98;1.70;;;4.70;81.40;;;;;;5016744;28;20097;-79
2021/01/13 09:15:07;;;;;;;2.88;1.95;;;4.70;81.20;;;;;;5017057;28;20861;-77
2021/01/13 09:17:34;;;;;;;2.58;1.80;;;4.70;81.20;;;;;;5016059;28;20018;-78
2021/01/13 09:20:07;;;;;;;1.73;1.63;;;4.70;81.20;;;;;;4989854;28;20021;-77
2021/01/13 09:22:49;;;;;;;2.33;1.70;;;4.70;81.20;;;;;;5016117;28;20449;-78
2021/01/13 09:25:22;;;;;;;1.98;1.70;;;4.70;81.30;;;;;;5009242;28;20076;-80
2021/01/13 09:27:55;;;;;;;2.85;1.60;;;4.70;81.20;;;;;;4984881;28;20041;-76
2021/01/13 09:30:41;;;;;;;1.73;1.50;;;4.70;81.20;;;;;;5002555;28;20437;-77
2021/01/13 09:33:37;;;;;;;1.88;1.52;;;4.70;81.30;;;;;;5013649;28;20390;-77
2021/01/13 09:36:03;;;;;;;2.50;1.70;;;4.70;81.30;;;;;;5015750;28;20029;-77
2021/01/13 09:38:34;;;;;;;2.05;1.73;;;4.70;81.20;;;;;;4996686;28;20077;-76
2021/01/13 09:41:04;;;;;;;2.00;1.65;;;4.70;81.20;;;;;;5014170;28;20025;-77
2021/01/13 09:43:34;;;;;;;2.03;1.80;;;4.70;81.30;;;;;;4996276;28;20030;-78
2021/01/13 09:46:05;;;;;;;1.67;1.48;;;4.70;81.30;;;;;;5012908;28;20030;-77
2021/01/13 09:48:33;;;;;;;2.95;1.95;;;4.70;81.20;;;;;;5004994;28;20029;-77
2021/01/13 09:51:03;;;;;;;2.90;1.85;;;4.70;81.20;;;;;;4998357;28;20491;-78
2021/01/13 09:53:31;;;;;;;1.77;1.65;;;4.70;81.30;;;;;;5033100;28;20113;-79
2021/01/13 09:56:06;;;;;;;2.03;1.80;;;4.80;81.30;;;;;;5033303;28;20025;-76
2021/01/13 09:58:37;;;;;;;2.15;1.95;;;4.70;81.30;;;;;;4999763;28;20057;-77
2021/01/13 10:01:38;;;;;;;2.63;1.98;;;4.80;81.30;;;;;;5006755;28;20022;-77
2021/01/13 10:04:12;;;;;;;2.20;1.45;;;4.80;81.40;;;;;;5042041;28;20025;-78
2021/01/13 10:06:43;;;;;;;2.33;1.80;;;4.80;81.30;;;;;;5005576;28;20374;-76
2021/01/13 10:09:12;;;;;;;2.67;1.77;;;4.80;81.30;;;;;;5043990;28;20275;-76
2021/01/13 10:11:38;;;;;;;3.28;1.88;;;4.80;81.30;;;;;;5034849;28;20101;-76
2021/01/13 10:14:06;;;;;;;3.42;2.03;;;4.80;81.30;;;;;;5026293;28;20123;-77
2021/01/13 10:16:32;;;;;;;2.58;1.95;;;4.80;81.30;;;;;;5032755;28;20033;-78
2021/01/13 10:18:59;;;;;;;1.70;1.55;;;4.80;81.90;;;;;;5033682;28;20056;-77
2021/01/13 10:21:32;;;;;;;2.17;1.90;;;4.80;81.40;;;;;;5018834;28;20490;-77
2021/01/13 10:24:06;;;;;;;2.40;1.92;;;4.90;81.40;;;;;;5035044;28;20032;-76
2021/01/13 10:26:36;;;;;;;3.60;2.00;;;4.90;81.40;;;;;;5031427;28;20089;-81
2021/01/13 10:29:03;;;;;;;2.00;1.80;;;4.80;81.30;;;;;;5040453;28;20028;-77
2021/01/13 10:31:29;;;;;;;2.08;1.65;;;4.90;81.40;;;;;;5029302;28;20461;-76
2021/01/13 10:33:56;;;;;;;2.13;1.90;;;4.90;81.40;;;;;;5002959;28;20037;-78
2021/01/13 10:36:41;;;;;;;1.80;1.60;;;4.90;81.40;;;;;;5020616;28;20021;-76
2021/01/13 10:39:25;;;;;;;2.13;1.65;;;4.90;81.50;;;;;;5018784;28;20480;-77
2021/01/13 10:41:53;;;;;;;2.10;1.67;;;5.00;81.50;;;;;;5034357;28;20029;-76
2021/01/13 10:44:29;;;;;;;4.30;2.08;;;5.00;81.40;;;;;;5050924;28;20120;-76
2021/01/13 10:47:08;;;;;;;2.10;1.80;;;5.00;81.50;;;;;;5044167;28;20090;-76
2021/01/13 10:49:47;;;;;;;2.05;1.70;;;5.00;81.50;;;;;;5007791;28;20024;-77
2021/01/13 10:52:21;;;;;;;2.20;1.70;;;5.00;81.40;;;;;;5016244;28;20057;-76
2021/01/13 10:54:54;;;;;;;1.77;1.63;;;5.00;81.40;;;;;;5064290;28;20469;-77
2021/01/13 10:57:29;;;;;;;2.72;1.80;;;5.00;81.40;;;;;;5002573;28;20021;-78
2021/01/13 11:00:11;;;;;;;2.22;2.03;;;5.10;81.50;;;;;;5001756;28;20040;-77
2021/01/13 11:02:37;;;;;;;2.17;1.83;;;5.10;81.60;;;;;;5008637;28;20022;-81
2021/01/13 11:05:04;;;;;;;3.38;2.10;;;5.10;81.40;;;;;;5047238;28;20039;-77
2021/01/13 11:07:38;;;;;;;2.53;1.60;;;5.10;81.50;;;;;;5034056;28;20040;-77
2021/01/13 11:10:11;;;;;;;3.00;2.70;;;5.10;81.50;;;;;;5016423;28;20030;-77
2021/01/13 11:12:38;;;;;;;2.30;1.80;;;5.20;81.50;;;;;;5010314;28;20045;-78
2021/01/13 11:15:06;;;;;;;2.40;1.98;;;5.20;81.40;;;;;;5031613;28;20036;-78
2021/01/13 11:17:35;;;;;;;1.73;1.60;;;5.20;81.40;;;;;;5027891;28;20086;-78
2021/01/13 11:20:04;;;;;;;2.67;2.05;;;5.20;81.40;;;;;;5041300;28;20028;-77
2021/01/13 11:22:51;;;;;;;2.90;2.05;;;5.30;81.50;;;;;;5034453;28;20107;-78
2021/01/13 11:25:21;;;;;;;2.72;2.10;;;5.30;81.50;;;;;;5044801;28;20049;-77
2021/01/13 11:28:13;;;;;;;3.38;2.03;;;5.30;81.40;;;;;;5021811;28;20037;-77
2021/01/13 11:30:44;;;;;;;2.38;2.03;;;5.30;81.50;;;;;;5038289;28;20029;-77
2021/01/13 11:33:13;;;;;;;2.08;1.90;;;5.40;81.40;;;;;;5035283;28;20437;-78
2021/01/13 11:35:40;;;;;;;2.70;2.40;;;5.40;81.40;;;;;;5016689;28;20112;-78
2021/01/13 11:38:14;;;;;;;2.65;1.90;;;5.40;81.40;;;;;;5034510;28;20032;-77
2021/01/13 11:40:54;;;;;;;3.30;2.33;;;5.50;81.50;;;;;;5033318;28;20104;-79
2021/01/13 11:43:35;;;;;;;2.75;1.80;;;5.50;81.50;;;;;;5011847;28;20030;-77
2021/01/13 11:46:09;;;;;;;2.83;1.77;;;5.50;81.40;;;;;;5031877;28;20728;-76
2021/01/13 11:49:02;;;;;;;3.20;1.85;;;5.50;81.40;;;;;;5026456;28;20033;-77
2021/01/13 11:51:33;;;;;;;2.05;1.60;;;5.60;81.40;;;;;;5046312;28;20033;-77
2021/01/13 11:54:00;;;;;;;2.20;1.80;;;5.60;81.30;;;;;;5033388;28;20080;-76
2021/01/13 11:56:28;;;;;;;3.72;2.00;;;5.60;81.30;;;;;;5020273;28;20116;-76
2021/01/13 11:58:54;;;;;;;5.53;2.63;;;5.70;81.30;;;;;;5016390;28;20041;-78
2021/01/13 12:01:23;;;;;;;2.70;2.10;;;5.70;81.30;;;;;;5013854;28;20026;-76
2021/01/13 12:04:01;;;;;;;2.80;1.92;;;5.70;81.30;;;;;;5041741;28;20381;-77
2021/01/13 12:06:27;;;;;;;2.33;1.80;;;5.70;81.30;;;;;;5003659;28;20067;-76
2021/01/13 12:08:52;;;;;;;1.90;1.73;;;5.80;81.20;;;;;;5026878;28;20416;-77
2021/01/13 12:11:18;;;;;;;3.00;2.10;;;5.80;81.20;;;;;;5035634;28;20052;-78
2021/01/13 12:13:45;;;;;;;3.65;2.35;;;5.80;81.20;;;;;;5017567;28;20084;-79
2021/01/13 12:16:18;;;;;;;2.38;1.90;;;5.90;81.20;;;;;;5034939;28;20039;-78
2021/01/13 12:18:53;;;;;;;1.67;1.40;;;5.90;81.70;;;;;;5018011;28;20037;-79
2021/01/13 12:21:18;;;;;;;3.20;2.17;;;6.00;81.20;;;;;;5040120;28;20544;-78
2021/01/13 12:23:51;;;;;;;2.38;2.00;;;6.00;81.00;;;;;;5052376;28;20038;-79
2021/01/13 12:26:32;;;;;;;2.80;1.95;;;6.00;81.00;;;;;;5055572;28;20037;-78
2021/01/13 12:29:14;;;;;;;2.55;1.75;;;6.00;81.00;;;;;;5020607;28;20079;-77
2021/01/13 12:31:41;;;;;;;3.20;2.08;;;6.10;80.90;;;;;;5055425;28;20428;-78
2021/01/13 12:34:26;;;;;;;3.35;2.10;;;6.10;80.80;;;;;;5001069;28;20025;-77
2021/01/13 12:36:54;;;;;;;2.63;1.85;;;6.20;80.90;;;;;;5029284;28;20033;-78
2021/01/13 12:39:28;;;;;;;3.35;1.85;;;6.20;80.90;;;;;;5055045;28;20031;-78
2021/01/13 12:41:55;;;;;;;2.10;1.75;;;6.20;80.80;;;;;;5036404;28;20509;-77
2021/01/13 12:44:22;;;;;;;3.47;1.88;;;6.20;80.80;;;;;;5051544;28;20084;-77
2021/01/13 12:46:52;;;;;;;2.97;2.15;;;6.20;80.80;;;;;;5026741;28;20087;-78
2021/01/13 12:49:18;;;;;;;3.50;1.90;;;6.20;80.80;;;;;;5025415;28;20029;-76
2021/01/13 12:51:50;;;;;;;2.70;1.60;;;6.20;80.80;;;;;;5028732;28;20053;-79
2021/01/13 12:54:16;;;;;;;2.13;1.92;;;6.30;80.90;;;;;;5063446;28;20033;-78
2021/01/13 12:56:41;;;;;;;2.40;1.83;;;6.30;80.80;;;;;;5007224;28;20100;-78
2021/01/13 12:59:07;;;;;;;4.05;2.17;;;6.30;80.80;;;;;;5021494;28;20028;-77
2021/01/13 13:01:38;;;;;;;2.10;1.83;;;6.30;80.70;;;;;;5030328;28;20025;-76
2021/01/13 13:04:04;;;;;;;3.00;1.70;;;6.40;80.80;;;;;;5048749;28;20056;-77
2021/01/13 13:06:31;;;;;;;3.75;1.73;;;6.40;80.80;;;;;;5021593;28;20077;-78
2021/01/13 13:09:04;;;;;;;3.22;2.03;;;6.40;80.50;;;;;;5019409;28;20395;-77
2021/01/13 13:11:29;;;;;;;3.10;2.13;;;6.50;80.40;;;;;;5050593;28;20378;-77
2021/01/13 13:13:56;;;;;;;3.15;1.85;;;6.60;80.50;;;;;;4995845;28;20026;-76
2021/01/13 13:16:23;;;;;;;2.38;1.75;;;6.60;80.00;;;;;;5031932;28;20087;-77
2021/01/13 13:18:50;;;;;;;2.67;1.88;;;6.70;80.00;;;;;;5003564;28;20030;-81
2021/01/13 13:21:16;;;;;;;2.17;1.80;;;6.60;80.00;;;;;;5026811;28;20051;-78
2021/01/13 13:23:43;;;;;;;2.08;1.60;;;6.70;80.10;;;;;;5018158;28;20189;-79
2021/01/13 13:26:10;;;;;;;2.33;1.67;;;6.60;80.10;;;;;;5018560;28;20117;-76
2021/01/13 13:28:36;;;;;;;3.60;1.50;;;6.60;80.10;;;;;;5024987;28;20037;-77